Time;durP1;ratioP1;P1;durP2;ratioP2;P2;SDS_P1;SDS_P2;PMS_P1;PMS_P2;Temp;Humidity;BMP_temperature;BMP_pressure;BME280_temperature;BME280_humidity;BME280_pressure;Samples;Min_cycle;Max_cycle;Signal;HPM_P1;HPM_P2
2021/12/22 00:00:21;;;;;;;15.80;7.00;;;7.00;94.70;;;;;;5006047;28;20034;-50
2021/12/22 00:02:48;;;;;;;14.32;6.80;;;7.00;94.70;;;;;;5002937;28;20038;-49
2021/12/22 00:05:23;;;;;;;15.77;6.57;;;6.90;94.60;;;;;;5002238;28;20033;-49
2021/12/22 00:07:49;;;;;;;9.05;4.78;;;6.90;94.60;;;;;;5006250;28;20022;-49
2021/12/22 00:10:15;;;;;;;12.02;5.22;;;6.90;94.70;;;;;;5002456;28;20080;-49
2021/12/22 00:12:41;;;;;;;14.52;6.35;;;6.90;94.70;;;;;;5001661;28;20038;-49
2021/12/22 00:15:07;;;;;;;13.07;5.68;;;7.00;94.70;;;;;;5006045;28;20403;-49
2021/12/22 00:17:33;;;;;;;17.40;6.53;;;7.00;94.70;;;;;;5001162;28;20461;-49
2021/12/22 00:19:59;;;;;;;9.60;4.85;;;7.00;94.70;;;;;;5006178;28;20030;-49
2021/12/22 00:22:25;;;;;;;9.30;3.97;;;7.00;94.70;;;;;;5003515;28;20165;-49
2021/12/22 00:24:50;;;;;;;15.57;7.45;;;6.90;94.60;;;;;;5003209;28;20037;-49
2021/12/22 00:27:16;;;;;;;15.63;6.93;;;6.90;94.60;;;;;;5005153;28;20041;-49
2021/12/22 00:29:46;;;;;;;11.70;6.75;;;6.90;94.60;;;;;;5000614;28;20069;-49
2021/12/22 00:32:15;;;;;;;11.07;5.82;;;6.90;94.60;;;;;;5005620;28;20037;-49
2021/12/22 00:34:51;;;;;;;10.32;5.43;;;6.90;94.60;;;;;;5004939;28;20046;-49
2021/12/22 00:37:24;;;;;;;13.38;5.15;;;6.90;94.60;;;;;;5002624;28;20626;-49
2021/12/22 00:39:51;;;;;;;10.90;5.85;;;6.90;94.60;;;;;;5005384;28;20354;-49
2021/12/22 00:42:18;;;;;;;12.80;6.03;;;6.90;94.60;;;;;;5001576;28;20033;-49
2021/12/22 00:44:47;;;;;;;13.02;5.47;;;6.90;94.60;;;;;;5001485;28;20069;-49
2021/12/22 00:47:13;;;;;;;12.18;5.78;;;6.90;94.60;;;;;;4998107;28;20030;-50
2021/12/22 00:49:39;;;;;;;11.45;5.80;;;6.90;94.60;;;;;;5001879;28;20072;-50
2021/12/22 00:52:05;;;;;;;9.85;5.07;;;6.90;94.60;;;;;;5008053;28;20029;-50
2021/12/22 00:54:31;;;;;;;11.77;6.15;;;6.90;94.50;;;;;;4999252;28;20034;-50
2021/12/22 00:57:03;;;;;;;7.28;4.85;;;6.90;94.50;;;;;;5004516;28;20018;-50
2021/12/22 00:59:28;;;;;;;11.57;4.97;;;6.90;94.60;;;;;;4998758;28;20042;-50
2021/12/22 01:01:54;;;;;;;15.50;5.82;;;6.90;94.60;;;;;;5000794;28;20114;-49
2021/12/22 01:04:20;;;;;;;8.48;4.53;;;6.90;94.50;;;;;;5000904;28;20034;-49
2021/12/22 01:06:46;;;;;;;12.50;4.95;;;6.90;94.50;;;;;;5001313;28;20448;-50
2021/12/22 01:09:12;;;;;;;9.63;5.82;;;6.90;94.60;;;;;;5005098;28;20030;-49
2021/12/22 01:11:38;;;;;;;7.95;4.90;;;6.90;94.60;;;;;;5006100;28;20030;-49
2021/12/22 01:14:04;;;;;;;13.88;6.07;;;6.90;94.80;;;;;;5000147;28;20042;-49
2021/12/22 01:16:30;;;;;;;11.55;5.53;;;7.00;94.50;;;;;;5003729;28;20452;-50
2021/12/22 01:18:58;;;;;;;10.05;5.70;;;6.90;94.50;;;;;;5001124;28;20037;-49
2021/12/22 01:21:38;;;;;;;9.73;5.78;;;6.90;94.50;;;;;;5003201;28;20099;-50
2021/12/22 01:24:20;;;;;;;11.68;6.10;;;6.90;94.50;;;;;;5001001;28;20029;-49
2021/12/22 01:26:51;;;;;;;10.70;5.45;;;6.90;94.70;;;;;;5003996;28;20034;-49
2021/12/22 01:29:17;;;;;;;11.70;6.40;;;6.90;94.50;;;;;;5003154;28;20038;-50
2021/12/22 01:31:43;;;;;;;10.38;6.15;;;6.90;94.50;;;;;;5001229;28;20657;-50
2021/12/22 01:34:09;;;;;;;12.70;5.97;;;6.80;94.30;;;;;;5000132;28;20362;-50
2021/12/22 01:36:35;;;;;;;10.20;5.70;;;6.80;94.50;;;;;;5003486;28;20474;-50
2021/12/22 01:39:01;;;;;;;11.00;5.63;;;6.80;94.50;;;;;;5000208;28;20469;-49
2021/12/22 01:41:27;;;;;;;11.77;5.65;;;6.90;94.50;;;;;;5001257;28;20056;-50
2021/12/22 01:43:54;;;;;;;16.60;6.45;;;6.90;94.40;;;;;;5001189;28;20504;-49
2021/12/22 01:49:10;;;;;;;13.60;6.57;;;6.90;94.40;;;;;;5004568;28;20049;-49
2021/12/22 01:52:02;;;;;;;13.98;6.43;;;6.90;94.40;;;;;;5003207;28;20117;-49
2021/12/22 01:54:40;;;;;;;10.30;5.55;;;6.80;94.50;;;;;;4998057;28;20058;-49
2021/12/22 01:57:10;;;;;;;8.70;5.13;;;6.90;94.50;;;;;;5003158;28;20034;-49
2021/12/22 01:59:38;;;;;;;12.32;5.45;;;6.90;94.40;;;;;;5001632;28;20397;-50
2021/12/22 02:02:06;;;;;;;10.85;5.00;;;6.90;94.40;;;;;;5006031;28;20157;-49
2021/12/22 02:04:32;;;;;;;9.23;5.65;;;6.90;94.50;;;;;;4999031;28;20039;-50
2021/12/22 02:06:58;;;;;;;6.82;4.90;;;6.90;94.50;;;;;;5001881;28;20041;-50
2021/12/22 02:12:11;;;;;;;11.68;5.97;;;6.90;94.50;;;;;;5002325;28;20030;-49
2021/12/22 02:14:40;;;;;;;10.65;5.38;;;6.90;94.50;;;;;;5002429;28;20125;-50
2021/12/22 02:17:08;;;;;;;11.93;4.53;;;6.90;94.40;;;;;;4999737;28;20031;-49
2021/12/22 02:19:44;;;;;;;12.60;5.75;;;6.90;94.40;;;;;;4999752;28;20044;-49
2021/12/22 02:22:13;;;;;;;10.75;6.43;;;6.90;94.40;;;;;;4999680;28;20025;-50
2021/12/22 02:24:40;;;;;;;11.77;5.50;;;6.90;94.40;;;;;;4994875;28;21185;-49
2021/12/22 02:27:12;;;;;;;13.95;6.63;;;6.90;94.40;;;;;;5002007;28;20318;-49
2021/12/22 02:29:40;;;;;;;14.00;6.43;;;6.90;94.40;;;;;;4996721;28;20054;-50
2021/12/22 02:32:46;;;;;;;9.90;5.88;;;6.90;94.40;;;;;;5005332;28;20030;-50
2021/12/22 02:35:03;;;;;;;13.27;6.25;;;6.90;94.40;;;;;;5002235;28;20043;-49
2021/12/22 02:37:30;;;;;;;12.03;6.23;;;6.90;94.50;;;;;;5002721;28;20030;-49
2021/12/22 02:39:59;;;;;;;10.43;5.60;;;6.80;94.40;;;;;;4999581;28;20453;-49
2021/12/22 02:42:29;;;;;;;10.93;6.70;;;6.90;94.50;;;;;;5001977;28;20034;-49
2021/12/22 02:44:55;;;;;;;19.42;6.97;;;6.90;94.50;;;;;;4998789;28;20100;-49
2021/12/22 02:47:25;;;;;;;12.25;5.45;;;6.90;94.50;;;;;;5001593;28;20041;-50
2021/12/22 02:49:51;;;;;;;;;;;6.90;94.50;;;;;;5000495;28;20026;-49
2021/12/22 02:52:17;;;;;;;12.38;6.00;;;6.90;94.40;;;;;;5002036;28;19943;-49
2021/12/22 02:54:51;;;;;;;16.67;6.30;;;6.90;94.50;;;;;;4998290;28;20806;-49
2021/12/22 02:57:34;;;;;;;9.18;6.25;;;6.90;94.50;;;;;;5003460;28;20034;-49
2021/12/22 03:05:06;;;;;;;9.75;5.80;;;6.80;94.40;;;;;;5000001;28;20026;-49
2021/12/22 03:07:32;;;;;;;6.93;3.67;;;6.90;94.50;;;;;;4999261;28;20024;-49
2021/12/22 03:10:04;;;;;;;8.35;4.28;;;6.90;94.40;;;;;;5000813;28;20030;-49
2021/12/22 03:12:33;;;;;;;7.88;4.20;;;6.90;94.40;;;;;;4998219;28;20112;-50
2021/12/22 03:14:59;;;;;;;6.60;2.85;;;6.90;94.40;;;;;;4998803;28;20536;-49
2021/12/22 03:17:25;;;;;;;5.85;3.35;;;6.90;94.30;;;;;;5000781;28;20037;-49
2021/12/22 03:19:51;;;;;;;12.88;6.18;;;6.90;94.40;;;;;;5000026;28;20026;-49
2021/12/22 03:22:19;;;;;;;9.63;5.80;;;6.90;94.30;;;;;;5001579;28;20501;-49
2021/12/22 03:24:47;;;;;;;13.45;6.45;;;6.90;94.40;;;;;;5006273;28;20113;-50
2021/12/22 03:27:12;;;;;;;12.70;6.47;;;6.90;94.40;;;;;;4998942;28;20027;-49
2021/12/22 03:29:39;;;;;;;15.15;6.80;;;6.80;94.30;;;;;;5001467;28;20037;-49
2021/12/22 03:32:07;;;;;;;11.25;5.60;;;6.80;94.30;;;;;;4998584;28;20015;-49
2021/12/22 03:34:33;;;;;;;7.53;3.90;;;6.90;94.30;;;;;;4999549;28;20350;-49
2021/12/22 03:36:59;;;;;;;9.93;5.40;;;6.90;94.30;;;;;;5002505;28;20053;-49
2021/12/22 03:39:27;;;;;;;8.77;4.75;;;6.90;94.30;;;;;;4999742;28;20038;-49
2021/12/22 03:41:53;;;;;;;11.50;4.38;;;6.80;94.20;;;;;;4999568;28;20041;-49
2021/12/22 03:44:18;;;;;;;11.43;6.25;;;6.90;94.30;;;;;;4996149;28;20034;-50
2021/12/22 03:46:44;;;;;;;18.08;6.38;;;6.90;94.20;;;;;;4998933;28;20018;-49
2021/12/22 03:49:12;;;;;;;12.07;5.32;;;6.90;94.20;;;;;;4998015;28;20037;-50
2021/12/22 03:51:39;;;;;;;12.88;5.70;;;6.90;94.20;;;;;;4998851;28;20034;-49
2021/12/22 03:54:07;;;;;;;10.18;5.40;;;6.90;94.20;;;;;;5002984;28;20530;-49
2021/12/22 03:56:33;;;;;;;8.70;4.82;;;6.90;94.10;;;;;;5000110;28;20338;-49
2021/12/22 03:58:58;;;;;;;17.27;7.63;;;6.90;94.10;;;;;;4998340;28;20563;-49
2021/12/22 04:01:24;;;;;;;15.40;7.40;;;6.90;94.10;;;;;;5000528;28;20033;-49
2021/12/22 04:03:54;;;;;;;8.93;4.28;;;6.80;94.10;;;;;;4997816;28;20054;-49
2021/12/22 04:06:20;;;;;;;18.90;5.97;;;6.90;94.10;;;;;;5000042;28;20465;-49
2021/12/22 04:08:45;;;;;;;6.97;2.33;;;6.90;94.10;;;;;;4997672;28;20045;-49
2021/12/22 04:11:11;;;;;;;10.10;5.45;;;6.90;94.10;;;;;;4998210;28;20026;-49
2021/12/22 04:13:37;;;;;;;14.50;6.25;;;6.90;94.10;;;;;;4998758;28;20104;-49
2021/12/22 04:16:03;;;;;;;13.75;6.35;;;6.90;94.10;;;;;;5002564;28;20026;-49
2021/12/22 04:18:28;;;;;;;12.02;6.15;;;6.80;94.00;;;;;;4997885;28;20030;-49
2021/12/22 04:20:54;;;;;;;8.73;5.28;;;6.90;94.10;;;;;;4997522;28;20401;-49
2021/12/22 04:23:20;;;;;;;8.70;5.05;;;6.90;94.00;;;;;;4995469;28;20226;-49
2021/12/22 04:25:46;;;;;;;13.90;7.57;;;6.90;94.00;;;;;;4998694;28;20042;-49
2021/12/22 04:28:12;;;;;;;9.23;5.53;;;6.90;94.00;;;;;;4999692;28;20409;-50
2021/12/22 04:30:45;;;;;;;7.20;3.63;;;6.90;94.00;;;;;;5004427;28;20061;-49
2021/12/22 04:33:11;;;;;;;10.98;5.15;;;6.90;94.30;;;;;;5000226;28;20046;-49
2021/12/22 04:35:37;;;;;;;13.95;6.75;;;6.80;93.90;;;;;;5004963;28;20022;-49
2021/12/22 04:38:03;;;;;;;5.97;3.97;;;6.80;94.00;;;;;;5005827;28;20109;-49
2021/12/22 04:40:30;;;;;;;9.50;5.05;;;6.80;93.90;;;;;;5005314;28;20430;-49
2021/12/22 04:42:56;;;;;;;12.45;5.20;;;6.90;93.90;;;;;;5000019;28;20113;-49
2021/12/22 04:45:21;;;;;;;9.00;4.63;;;6.90;93.90;;;;;;5000842;28;20133;-49
2021/12/22 04:47:48;;;;;;;13.60;6.63;;;6.90;93.80;;;;;;5002906;28;20058;-49
2021/12/22 04:50:17;;;;;;;12.88;6.70;;;6.90;93.90;;;;;;5000945;28;20112;-50
2021/12/22 04:53:10;;;;;;;16.42;6.55;;;6.80;93.80;;;;;;5004903;28;20122;-49
2021/12/22 04:55:34;;;;;;;11.45;6.20;;;6.90;93.80;;;;;;5004481;28;20116;-49
2021/12/22 04:58:00;;;;;;;14.43;6.72;;;6.90;93.80;;;;;;5000812;28;20402;-49
2021/12/22 05:00:29;;;;;;;16.20;6.75;;;6.90;93.80;;;;;;5003890;28;20461;-49
2021/12/22 05:02:57;;;;;;;10.75;4.15;;;6.90;93.80;;;;;;5003568;28;20084;-49
2021/12/22 05:05:23;;;;;;;15.40;7.03;;;6.80;93.80;;;;;;5004053;28;20308;-50
2021/12/22 05:07:49;;;;;;;12.45;5.75;;;6.80;93.80;;;;;;5011108;28;20026;-49
2021/12/22 05:10:16;;;;;;;11.90;4.72;;;6.90;93.70;;;;;;5008897;28;20044;-49
2021/12/22 05:12:42;;;;;;;13.88;5.88;;;6.90;93.80;;;;;;4999346;28;20461;-49
2021/12/22 05:15:08;;;;;;;11.55;5.50;;;6.90;93.70;;;;;;5004613;28;20096;-49
2021/12/22 05:20:11;;;;;;;13.50;6.25;;;6.90;93.70;;;;;;5002935;28;20046;-50
2021/12/22 05:22:36;;;;;;;8.82;4.28;;;6.90;93.70;;;;;;5001981;28;20022;-49
2021/12/22 05:25:04;;;;;;;14.43;5.32;;;6.90;93.80;;;;;;5000462;28;20076;-50
2021/12/22 05:27:30;;;;;;;17.85;6.95;;;6.90;93.70;;;;;;5001736;28;20424;-49
2021/12/22 05:29:56;;;;;;;13.25;6.43;;;6.80;93.70;;;;;;5000361;28;20066;-49
2021/12/22 05:32:26;;;;;;;16.25;5.43;;;6.80;93.70;;;;;;5002723;28;20044;-49
2021/12/22 05:34:52;;;;;;;15.13;6.13;;;6.80;93.70;;;;;;5008164;28;20045;-49
2021/12/22 05:37:18;;;;;;;15.23;6.10;;;6.80;93.70;;;;;;5003549;28;20281;-49
2021/12/22 05:39:44;;;;;;;11.20;5.32;;;6.80;93.70;;;;;;5002217;28;20026;-49
2021/12/22 05:42:10;;;;;;;14.30;5.30;;;6.90;93.70;;;;;;5002573;28;20033;-49
2021/12/22 05:44:35;;;;;;;21.88;8.15;;;6.80;93.70;;;;;;5004101;28;20477;-50
2021/12/22 05:47:01;;;;;;;13.00;6.20;;;6.90;93.70;;;;;;5002439;28;20157;-49
2021/12/22 05:49:27;;;;;;;15.18;6.60;;;6.80;93.70;;;;;;5004299;28;20069;-50
2021/12/22 05:51:52;;;;;;;14.85;5.10;;;6.80;93.60;;;;;;5008366;28;20014;-49
2021/12/22 05:54:18;;;;;;;21.02;6.70;;;6.80;93.60;;;;;;5010431;28;20037;-49
2021/12/22 05:56:43;;;;;;;12.18;6.95;;;6.80;93.60;;;;;;5005781;28;20333;-49
2021/12/22 05:59:09;;;;;;;14.25;6.43;;;6.80;93.70;;;;;;5008393;28;20030;-49
2021/12/22 06:01:35;;;;;;;14.57;6.97;;;6.80;93.60;;;;;;5004465;28;20026;-49
2021/12/22 06:04:02;;;;;;;10.57;6.03;;;6.80;93.60;;;;;;5006108;28;20034;-49
2021/12/22 06:06:28;;;;;;;13.25;6.50;;;6.80;93.60;;;;;;5003924;28;20099;-49
2021/12/22 06:08:53;;;;;;;14.15;6.32;;;6.80;93.70;;;;;;5000037;28;20114;-50
2021/12/22 06:11:19;;;;;;;17.30;6.72;;;6.80;93.60;;;;;;5002970;28;20022;-49
2021/12/22 06:13:45;;;;;;;11.30;4.82;;;6.80;93.60;;;;;;5007908;28;20080;-49
2021/12/22 06:16:11;;;;;;;14.23;6.35;;;6.80;93.60;;;;;;5002186;28;20065;-50
2021/12/22 06:18:42;;;;;;;16.52;6.57;;;6.80;93.70;;;;;;5002674;28;20070;-49
2021/12/22 06:21:08;;;;;;;15.02;7.05;;;6.80;93.70;;;;;;5006954;28;20557;-49
2021/12/22 06:23:34;;;;;;;21.23;7.68;;;6.80;93.60;;;;;;5002167;28;20191;-50
2021/12/22 06:26:00;;;;;;;16.85;7.55;;;6.80;93.70;;;;;;5003322;28;20134;-50
2021/12/22 06:28:25;;;;;;;15.55;7.45;;;6.80;93.60;;;;;;4999046;28;20456;-49
2021/12/22 06:30:51;;;;;;;18.67;7.50;;;6.80;93.60;;;;;;5002764;28;20026;-50
2021/12/22 06:33:16;;;;;;;17.70;7.28;;;6.80;93.70;;;;;;4999556;28;20565;-49
2021/12/22 06:35:42;;;;;;;14.30;7.13;;;6.80;93.70;;;;;;5001488;28;20028;-49
2021/12/22 06:38:08;;;;;;;15.02;6.50;;;6.80;93.70;;;;;;5003049;28;20042;-49
2021/12/22 06:40:34;;;;;;;12.82;7.00;;;6.80;93.70;;;;;;5000662;28;20019;-49
2021/12/22 06:42:59;;;;;;;13.82;7.28;;;6.80;93.70;;;;;;5000967;28;20026;-50
2021/12/22 06:45:26;;;;;;;15.13;7.93;;;6.80;93.70;;;;;;5000238;28;20030;-50
2021/12/22 06:47:52;;;;;;;16.17;7.43;;;6.80;93.70;;;;;;5002081;28;20013;-50
2021/12/22 06:50:18;;;;;;;16.80;7.20;;;6.80;93.70;;;;;;5002110;28;20448;-50
2021/12/22 06:52:44;;;;;;;12.93;6.68;;;6.80;93.70;;;;;;4998640;28;20019;-50
2021/12/22 06:55:10;;;;;;;14.40;6.57;;;6.80;93.70;;;;;;5001654;28;20062;-49
2021/12/22 06:57:36;;;;;;;14.95;7.25;;;6.80;93.70;;;;;;5000947;28;20068;-50
2021/12/22 07:00:05;;;;;;;15.07;7.05;;;6.80;93.70;;;;;;5000043;28;20042;-50
2021/12/22 07:02:35;;;;;;;20.13;8.52;;;6.80;93.70;;;;;;5000191;28;20033;-49
2021/12/22 07:05:01;;;;;;;10.50;6.05;;;6.80;93.70;;;;;;5002398;28;20050;-50
2021/12/22 07:07:26;;;;;;;18.20;7.40;;;6.80;93.70;;;;;;5000976;28;20066;-50
2021/12/22 07:09:52;;;;;;;11.63;6.65;;;6.80;93.70;;;;;;5000438;28;20026;-49
2021/12/22 07:12:17;;;;;;;17.27;7.00;;;6.80;93.70;;;;;;4998771;28;20065;-49
2021/12/22 07:14:43;;;;;;;17.98;6.90;;;6.80;93.90;;;;;;5001398;28;20048;-49
2021/12/22 07:17:10;;;;;;;18.85;6.88;;;6.80;93.70;;;;;;5002241;28;20022;-49
2021/12/22 07:19:35;;;;;;;16.67;6.78;;;6.70;93.70;;;;;;5000219;28;20054;-49
2021/12/22 07:22:01;;;;;;;18.17;7.13;;;6.70;93.70;;;;;;5000175;28;20046;-49
2021/12/22 07:24:27;;;;;;;12.73;6.20;;;6.70;93.70;;;;;;5002623;28;20500;-49
2021/12/22 07:26:52;;;;;;;13.00;6.00;;;6.70;93.70;;;;;;4999418;28;20113;-49
2021/12/22 07:29:18;;;;;;;20.80;7.80;;;6.70;93.70;;;;;;5001121;28;20030;-49
2021/12/22 07:31:43;;;;;;;12.93;6.78;;;6.70;93.70;;;;;;4999026;28;20080;-49
2021/12/22 07:34:23;;;;;;;11.57;6.63;;;6.70;93.70;;;;;;5001612;28;20370;-49
2021/12/22 07:37:19;;;;;;;14.30;7.07;;;6.70;93.70;;;;;;5003504;28;20449;-49
2021/12/22 07:39:44;;;;;;;12.35;6.50;;;6.70;93.70;;;;;;5001193;28;20065;-49
2021/12/22 07:42:10;;;;;;;12.93;7.13;;;6.70;93.70;;;;;;4998535;28;20448;-49
2021/12/22 07:44:36;;;;;;;15.93;7.55;;;6.70;93.70;;;;;;5001788;28;20026;-49
2021/12/22 07:47:01;;;;;;;15.05;7.47;;;6.70;93.80;;;;;;5003630;28;20360;-49
2021/12/22 07:49:27;;;;;;;15.57;7.57;;;6.70;93.70;;;;;;5009706;28;20022;-49
2021/12/22 07:51:52;;;;;;;14.90;6.35;;;6.70;93.70;;;;;;5008651;28;20014;-49
2021/12/22 07:54:18;;;;;;;16.83;7.80;;;6.70;93.70;;;;;;5006226;28;20049;-50
2021/12/22 07:56:44;;;;;;;17.73;7.63;;;6.70;93.70;;;;;;4999885;28;20019;-49
2021/12/22 07:59:09;;;;;;;20.92;7.60;;;6.70;93.70;;;;;;5001166;28;20037;-49
2021/12/22 08:01:35;;;;;;;14.93;7.57;;;6.70;93.70;;;;;;4998774;28;20034;-50
2021/12/22 08:04:01;;;;;;;13.52;6.85;;;6.70;94.10;;;;;;5005195;28;20033;-49
2021/12/22 08:06:26;;;;;;;17.40;8.10;;;6.70;93.70;;;;;;5004104;28;20417;-49
2021/12/22 08:08:52;;;;;;;17.05;6.97;;;6.70;93.70;;;;;;5003711;28;20036;-50
2021/12/22 08:11:17;;;;;;;17.20;7.30;;;6.70;93.70;;;;;;5004477;28;20342;-49
2021/12/22 08:13:44;;;;;;;18.67;8.32;;;6.70;93.70;;;;;;5003458;28;20034;-49
2021/12/22 08:16:10;;;;;;;14.35;8.02;;;6.70;93.70;;;;;;5003468;28;20048;-49
2021/12/22 08:18:36;;;;;;;19.23;8.18;;;6.70;93.70;;;;;;5005463;28;20445;-50
2021/12/22 08:21:02;;;;;;;17.58;7.65;;;6.70;93.70;;;;;;5003516;28;20520;-49
2021/12/22 08:23:28;;;;;;;16.83;6.78;;;6.70;93.80;;;;;;5000583;28;20457;-49
2021/12/22 08:25:54;;;;;;;15.30;4.82;;;6.70;93.80;;;;;;5005274;28;20066;-49
2021/12/22 08:28:19;;;;;;;10.82;6.05;;;6.60;93.70;;;;;;5003662;28;20058;-49
2021/12/22 08:30:46;;;;;;;16.25;7.35;;;6.60;93.70;;;;;;5005942;28;20336;-49
2021/12/22 08:33:23;;;;;;;13.88;5.32;;;6.60;93.70;;;;;;5001066;28;20027;-49
2021/12/22 08:38:50;;;;;;;12.52;4.93;;;6.60;93.70;;;;;;5002710;28;20053;-49
2021/12/22 08:41:18;;;;;;;17.42;5.85;;;6.70;93.70;;;;;;5001838;28;20106;-49
2021/12/22 08:43:44;;;;;;;15.30;6.50;;;6.60;93.70;;;;;;5002926;28;20076;-49
2021/12/22 08:46:09;;;;;;;10.48;5.38;;;6.70;93.70;;;;;;5005263;28;20198;-50
2021/12/22 08:48:35;;;;;;;12.32;5.25;;;6.70;93.70;;;;;;5002427;28;20416;-50
2021/12/22 08:51:01;;;;;;;12.13;4.30;;;6.70;93.70;;;;;;5003667;28;20030;-50
2021/12/22 08:53:26;;;;;;;12.05;5.70;;;6.70;93.80;;;;;;5003962;28;20117;-49
2021/12/22 08:55:52;;;;;;;17.30;4.65;;;6.70;93.70;;;;;;5002585;28;20019;-50
2021/12/22 08:58:17;;;;;;;11.48;5.57;;;6.70;93.60;;;;;;5002961;28;20084;-50
2021/12/22 09:00:43;;;;;;;10.10;5.45;;;6.70;93.60;;;;;;5002088;28;20022;-50
2021/12/22 09:03:09;;;;;;;15.48;6.68;;;6.70;93.70;;;;;;5003667;28;20406;-49
2021/12/22 09:05:34;;;;;;;18.13;6.43;;;6.70;93.70;;;;;;5004110;28;20364;-49
2021/12/22 09:08:00;;;;;;;14.50;5.88;;;6.70;93.70;;;;;;5001774;28;20034;-50
2021/12/22 09:10:26;;;;;;;12.98;6.55;;;6.70;93.70;;;;;;5003946;28;20026;-50
2021/12/22 09:12:51;;;;;;;15.32;6.72;;;6.70;93.80;;;;;;5002040;28;20080;-49
2021/12/22 09:15:17;;;;;;;18.88;7.57;;;6.80;93.80;;;;;;5002568;28;20477;-49
2021/12/22 09:17:44;;;;;;;11.13;5.82;;;6.80;93.80;;;;;;5002225;28;20023;-50
2021/12/22 09:20:10;;;;;;;21.60;8.32;;;6.80;93.80;;;;;;5002357;28;20034;-49
2021/12/22 09:22:35;;;;;;;21.30;9.63;;;6.80;93.90;;;;;;5003598;28;20473;-50
2021/12/22 09:25:03;;;;;;;13.88;6.78;;;6.70;93.90;;;;;;5002355;28;20045;-49
2021/12/22 09:27:28;;;;;;;20.48;6.78;;;6.80;94.00;;;;;;5001574;28;20067;-50
2021/12/22 09:29:54;;;;;;;17.85;6.85;;;6.80;94.00;;;;;;5000432;28;20153;-49
2021/12/22 09:32:21;;;;;;;19.75;8.68;;;6.80;93.90;;;;;;5001346;28;20083;-50
2021/12/22 09:34:49;;;;;;;17.52;8.50;;;6.90;93.90;;;;;;5001611;28;20045;-50
2021/12/22 09:37:16;;;;;;;21.00;8.88;;;6.80;94.00;;;;;;5005150;28;20026;-50
2021/12/22 09:39:42;;;;;;;23.73;10.18;;;6.80;93.90;;;;;;5001486;28;20030;-50
2021/12/22 09:42:10;;;;;;;23.92;10.15;;;6.80;94.00;;;;;;5003368;28;20053;-50
2021/12/22 09:44:43;;;;;;;16.38;8.38;;;6.80;94.00;;;;;;5002578;28;20034;-50
2021/12/22 09:47:13;;;;;;;16.75;8.30;;;6.80;94.10;;;;;;5001899;28;20030;-49
2021/12/22 09:52:17;;;;;;;18.77;8.27;;;6.80;94.20;;;;;;5003792;28;20032;-50
2021/12/22 09:54:43;;;;;;;21.73;9.95;;;6.80;94.20;;;;;;5003548;28;20038;-50
2021/12/22 09:57:09;;;;;;;20.20;9.95;;;6.80;94.20;;;;;;5001798;28;20034;-50
2021/12/22 09:59:35;;;;;;;33.40;11.30;;;6.80;94.20;;;;;;5002778;28;20364;-50
2021/12/22 10:02:02;;;;;;;22.42;9.60;;;6.80;94.30;;;;;;5002110;28;20032;-50
2021/12/22 10:04:28;;;;;;;30.02;10.07;;;6.80;94.30;;;;;;5001123;28;20444;-49
2021/12/22 10:06:54;;;;;;;34.10;11.55;;;6.80;94.30;;;;;;5002090;28;20026;-49
2021/12/22 10:09:24;;;;;;;30.38;12.05;;;6.80;94.30;;;;;;5003442;28;20203;-49
2021/12/22 10:11:50;;;;;;;25.88;10.15;;;6.80;94.30;;;;;;5001724;28;20026;-49
2021/12/22 10:14:24;;;;;;;19.77;9.45;;;6.80;94.40;;;;;;5000133;28;20523;-49
2021/12/22 10:16:53;;;;;;;27.88;10.77;;;6.80;94.30;;;;;;5002452;28;20029;-50
2021/12/22 10:19:19;;;;;;;22.55;8.93;;;6.90;94.30;;;;;;5000741;28;20054;-49
2021/12/22 10:21:52;;;;;;;28.30;11.23;;;6.90;94.30;;;;;;5001881;28;20049;-49
2021/12/22 10:24:18;;;;;;;30.25;11.40;;;6.90;94.30;;;;;;5002935;28;20038;-49
2021/12/22 10:26:44;;;;;;;20.23;6.70;;;6.90;94.40;;;;;;5001211;28;20026;-49
2021/12/22 10:29:09;;;;;;;19.02;8.77;;;6.90;94.20;;;;;;5000899;28;20034;-50
2021/12/22 10:31:40;;;;;;;19.20;9.43;;;7.00;93.40;;;;;;4998932;28;20452;-50
2021/12/22 10:34:15;;;;;;;32.17;12.20;;;7.00;91.50;;;;;;5001080;28;20632;-50
2021/12/22 10:36:52;;;;;;;17.27;6.35;;;6.90;90.00;;;;;;5001183;28;20113;-50
2021/12/22 10:39:30;;;;;;;31.38;10.98;;;6.90;87.70;;;;;;4999985;28;20384;-49
2021/12/22 10:42:04;;;;;;;24.63;10.00;;;6.80;87.40;;;;;;4999748;28;20042;-50
2021/12/22 10:44:35;;;;;;;24.65;10.65;;;6.80;91.20;;;;;;5000681;28;20030;-49
2021/12/22 10:47:19;;;;;;;18.58;8.88;;;6.80;92.00;;;;;;5008770;28;20022;-49
2021/12/22 10:50:03;;;;;;;26.20;8.50;;;6.80;91.70;;;;;;5009648;28;20026;-49
2021/12/22 10:52:31;;;;;;;26.25;10.52;;;6.90;91.60;;;;;;5008485;28;20087;-50
2021/12/22 10:55:35;;;;;;;12.90;7.15;;;6.90;91.60;;;;;;5008263;28;20038;-49
2021/12/22 10:58:00;;;;;;;24.98;11.27;;;6.90;91.40;;;;;;4986396;28;20041;-49
2021/12/22 11:00:26;;;;;;;27.80;10.95;;;6.90;91.40;;;;;;4984289;28;20030;-49
2021/12/22 11:03:04;;;;;;;23.98;10.73;;;6.90;91.60;;;;;;4986032;28;20053;-49
2021/12/22 11:05:48;;;;;;;29.80;12.87;;;6.90;91.60;;;;;;4986044;28;20050;-49
2021/12/22 11:08:32;;;;;;;24.15;9.80;;;6.90;91.90;;;;;;4988759;28;20042;-49
2021/12/22 11:10:57;;;;;;;34.53;11.40;;;6.90;91.80;;;;;;4986740;28;20454;-49
2021/12/22 11:13:24;;;;;;;27.75;11.20;;;6.90;91.60;;;;;;4987688;28;20100;-49
2021/12/22 11:15:51;;;;;;;35.45;12.27;;;7.00;91.60;;;;;;4987532;28;20041;-49
2021/12/22 11:18:33;;;;;;;14.27;6.07;;;6.90;91.90;;;;;;4988604;28;20041;-49
2021/12/22 11:21:27;;;;;;;19.70;8.40;;;7.00;91.70;;;;;;4988397;28;20058;-49
2021/12/22 11:23:53;;;;;;;21.27;9.13;;;7.00;91.70;;;;;;4988885;28;20034;-49
2021/12/22 11:26:19;;;;;;;26.00;9.60;;;7.00;91.70;;;;;;4988551;28;20027;-50
2021/12/22 11:28:44;;;;;;;31.30;11.30;;;7.00;91.70;;;;;;4988262;28;20046;-50
2021/12/22 11:31:10;;;;;;;26.65;13.13;;;7.00;91.70;;;;;;4987183;28;20022;-49
2021/12/22 11:33:39;;;;;;;26.05;10.48;;;7.00;91.90;;;;;;4987692;28;20035;-49
2021/12/22 11:36:06;;;;;;;23.10;9.27;;;7.00;91.80;;;;;;5002251;28;20239;-49
2021/12/22 11:38:33;;;;;;;15.60;7.90;;;7.00;91.90;;;;;;5004101;28;20022;-49
2021/12/22 11:41:16;;;;;;;21.13;7.40;;;7.00;92.00;;;;;;5003413;28;20045;-49
2021/12/22 11:43:43;;;;;;;20.75;8.68;;;7.00;92.10;;;;;;5003259;28;20034;-49
2021/12/22 11:46:10;;;;;;;27.17;10.82;;;7.00;92.20;;;;;;5001976;28;20456;-49
2021/12/22 11:48:37;;;;;;;32.88;11.88;;;7.00;92.30;;;;;;5005553;28;20057;-49
2021/12/22 11:51:21;;;;;;;32.65;14.90;;;7.00;92.30;;;;;;5003649;28;20097;-49
2021/12/22 11:53:57;;;;;;;34.22;12.15;;;7.00;92.50;;;;;;5003252;28;20038;-49
2021/12/22 11:56:44;;;;;;;22.55;9.68;;;6.90;92.70;;;;;;5003657;28;20034;-49
2021/12/22 11:59:38;;;;;;;26.40;12.48;;;7.00;92.50;;;;;;5005845;28;20514;-50
2021/12/22 12:02:16;;;;;;;26.27;11.20;;;6.90;92.70;;;;;;5004522;28;20515;-49
2021/12/22 12:04:42;;;;;;;21.08;9.77;;;7.00;92.60;;;;;;5005538;28;20018;-50
2021/12/22 12:07:07;;;;;;;21.95;11.32;;;7.00;92.50;;;;;;5004545;28;20035;-49
2021/12/22 12:09:33;;;;;;;22.10;9.18;;;7.00;92.70;;;;;;5003323;28;20022;-49
2021/12/22 12:12:04;;;;;;;21.80;9.65;;;7.00;92.60;;;;;;5005113;28;20037;-49
2021/12/22 12:23:23;;;;;;;26.65;11.68;;;7.00;92.60;;;;;;5003484;28;20076;-50
2021/12/22 12:25:49;;;;;;;27.42;11.07;;;7.00;92.70;;;;;;5004210;28;20076;-50
2021/12/22 12:28:17;;;;;;;24.88;10.20;;;7.00;92.80;;;;;;5002746;28;20392;-49
2021/12/22 12:30:52;;;;;;;12.98;6.57;;;7.00;92.90;;;;;;5002655;28;20037;-49
2021/12/22 12:33:23;;;;;;;22.80;10.20;;;7.00;92.70;;;;;;5002971;28;20381;-49
2021/12/22 12:35:59;;;;;;;20.58;9.05;;;7.00;92.80;;;;;;5003947;28;20038;-49
2021/12/22 12:38:30;;;;;;;17.27;8.20;;;7.00;92.80;;;;;;5003156;28;20019;-49
2021/12/22 12:41:11;;;;;;;8.95;5.68;;;7.00;92.60;;;;;;5002655;28;20038;-49
2021/12/22 12:43:47;;;;;;;22.85;9.30;;;7.10;92.70;;;;;;5001930;28;20067;-50
2021/12/22 12:46:24;;;;;;;25.98;10.05;;;7.00;92.70;;;;;;5002934;28;20531;-49
2021/12/22 12:49:06;;;;;;;27.42;11.82;;;7.00;92.70;;;;;;5001277;28;20153;-50
2021/12/22 12:51:35;;;;;;;23.60;10.30;;;7.00;92.90;;;;;;5002003;28;20034;-49
2021/12/22 12:54:05;;;;;;;24.02;11.60;;;7.00;92.80;;;;;;5002528;28;20035;-50
2021/12/22 12:56:45;;;;;;;29.33;16.23;;;7.00;93.00;;;;;;5002281;28;20035;-49
2021/12/22 12:59:16;;;;;;;28.60;13.02;;;6.90;93.20;;;;;;5002441;28;20084;-50
2021/12/22 13:01:45;;;;;;;26.35;12.20;;;6.90;93.10;;;;;;5001369;28;20034;-50
2021/12/22 13:04:24;;;;;;;30.33;12.43;;;7.00;93.10;;;;;;5004169;28;20025;-50
2021/12/22 13:06:51;;;;;;;31.33;12.18;;;6.90;93.10;;;;;;5003910;28;20036;-49
2021/12/22 13:09:28;;;;;;;26.58;12.48;;;7.00;93.00;;;;;;5002278;28;20027;-49
2021/12/22 13:12:19;;;;;;;25.85;13.02;;;7.00;93.20;;;;;;4999935;28;20058;-49
2021/12/22 13:17:53;;;;;;;26.02;11.15;;;7.00;93.20;;;;;;5003282;28;20080;-49
2021/12/22 13:20:40;;;;;;;21.13;11.02;;;7.00;93.20;;;;;;5003532;28;20034;-50
2021/12/22 13:23:10;;;;;;;26.02;11.02;;;7.00;93.20;;;;;;5002971;28;20410;-49